sensor_id;sensor_type;location;lat;lon;timestamp;pressure;altitude;pressure_sealevel;temperature;humidity
49943;BME280;36011;53.362;58.948;2023-01-26T00:02:04;97507.91;;;-10.84;56.44
49943;BME280;36011;53.362;58.948;2023-01-26T00:05:05;97483.41;;;-11.11;56.83
49943;BME280;36011;53.362;58.948;2023-01-26T00:08:06;97466.22;;;-10.91;57.47
49943;BME280;36011;53.362;58.948;2023-01-26T00:11:09;97461.88;;;-10.95;56.67
49943;BME280;36011;53.362;58.948;2023-01-26T00:14:13;97461.78;;;-10.98;57.12
49943;BME280;36011;53.362;58.948;2023-01-26T00:17:15;97480.94;;;-11.09;57.03
49943;BME280;36011;53.362;58.948;2023-01-26T00:20:17;97485.19;;;-11.08;56.70
49943;BME280;36011;53.362;58.948;2023-01-26T00:23:23;97497.81;;;-11.11;57.09
49943;BME280;36011;53.362;58.948;2023-01-26T00:26:26;97490.44;;;-11.31;57.24
49943;BME280;36011;53.362;58.948;2023-01-26T00:29:32;97482.91;;;-11.29;57.50
49943;BME280;36011;53.362;58.948;2023-01-26T00:32:36;97469.03;;;-11.10;57.48
49943;BME280;36011;53.362;58.948;2023-01-26T00:35:40;97457.31;;;-11.05;57.06
49943;BME280;36011;53.362;58.948;2023-01-26T00:38:46;97461.38;;;-11.12;56.81
49943;BME280;36011;53.362;58.948;2023-01-26T00:41:49;97475.78;;;-11.12;57.02
49943;BME280;36011;53.362;58.948;2023-01-26T00:45:13;97501.28;;;-11.09;56.61
49943;BME280;36011;53.362;58.948;2023-01-26T00:48:17;97514.06;;;-11.06;56.58
49943;BME280;36011;53.362;58.948;2023-01-26T00:51:18;97508.75;;;-11.14;56.76
49943;BME280;36011;53.362;58.948;2023-01-26T00:54:19;97512.56;;;-11.26;57.19
49943;BME280;36011;53.362;58.948;2023-01-26T00:57:20;97500.13;;;-11.19;56.68
49943;BME280;36011;53.362;58.948;2023-01-26T01:00:22;97487.28;;;-11.23;57.58
49943;BME280;36011;53.362;58.948;2023-01-26T01:03:23;97487.09;;;-11.30;57.22
49943;BME280;36011;53.362;58.948;2023-01-26T01:06:25;97478.59;;;-11.32;57.16
49943;BME280;36011;53.362;58.948;2023-01-26T01:09:31;97470.47;;;-11.18;57.30
49943;BME280;36011;53.362;58.948;2023-01-26T01:12:35;97472.91;;;-10.93;56.73
49943;BME280;36011;53.362;58.948;2023-01-26T01:15:37;97478.41;;;-11.09;56.93
49943;BME280;36011;53.362;58.948;2023-01-26T01:18:38;97487.56;;;-11.14;56.90
49943;BME280;36011;53.362;58.948;2023-01-26T01:21:39;97493.16;;;-11.26;57.27
49943;BME280;36011;53.362;58.948;2023-01-26T01:24:41;97495.53;;;-11.31;57.63
49943;BME280;36011;53.362;58.948;2023-01-26T01:27:48;97490.13;;;-11.13;57.88
49943;BME280;36011;53.362;58.948;2023-01-26T01:30:50;97471.22;;;-10.94;57.61
49943;BME280;36011;53.362;58.948;2023-01-26T01:33:51;97469.03;;;-11.10;57.86
49943;BME280;36011;53.362;58.948;2023-01-26T01:36:53;97469.88;;;-11.11;58.17
49943;BME280;36011;53.362;58.948;2023-01-26T01:39:56;97472.50;;;-11.08;58.31
49943;BME280;36011;53.362;58.948;2023-01-26T01:42:57;97487.66;;;-11.11;58.42
49943;BME280;36011;53.362;58.948;2023-01-26T01:45:59;97482.56;;;-11.11;58.56
49943;BME280;36011;53.362;58.948;2023-01-26T01:49:02;97485.81;;;-11.15;58.41
49943;BME280;36011;53.362;58.948;2023-01-26T01:52:08;97469.03;;;-11.10;58.36
49943;BME280;36011;53.362;58.948;2023-01-26T01:55:11;97467.41;;;-11.37;59.02
49943;BME280;36011;53.362;58.948;2023-01-26T01:58:15;97469.88;;;-11.10;58.76
49943;BME280;36011;53.362;58.948;2023-01-26T02:01:19;97454.91;;;-11.31;58.57
49943;BME280;36011;53.362;58.948;2023-01-26T02:04:20;97454.53;;;-11.43;58.83
49943;BME280;36011;53.362;58.948;2023-01-26T02:07:22;97457.28;;;-11.35;58.68
49943;BME280;36011;53.362;58.948;2023-01-26T02:10:28;97466.31;;;-11.45;58.57
49943;BME280;36011;53.362;58.948;2023-01-26T02:13:30;97473.25;;;-11.66;58.47
49943;BME280;36011;53.362;58.948;2023-01-26T02:16:31;97467.56;;;-11.88;59.22
49943;BME280;36011;53.362;58.948;2023-01-26T02:19:46;97477.72;;;-11.59;58.65
49943;BME280;36011;53.362;58.948;2023-01-26T02:22:57;97474.41;;;-11.85;58.47
49943;BME280;36011;53.362;58.948;2023-01-26T02:26:07;97460.19;;;-11.79;58.86
49943;BME280;36011;53.362;58.948;2023-01-26T02:29:16;97470.31;;;-11.80;58.83
49943;BME280;36011;53.362;58.948;2023-01-26T02:32:19;97472.75;;;-11.56;58.52
49943;BME280;36011;53.362;58.948;2023-01-26T02:35:24;97462.41;;;-11.62;58.36
49943;BME280;36011;53.362;58.948;2023-01-26T02:41:51;97464.69;;;-12.24;59.05
49943;BME280;36011;53.362;58.948;2023-01-26T02:45:14;97463.94;;;-12.22;59.71
49943;BME280;36011;53.362;58.948;2023-01-26T02:48:17;97459.91;;;-12.15;60.12
49943;BME280;36011;53.362;58.948;2023-01-26T02:51:39;97466.25;;;-12.28;60.03
49943;BME280;36011;53.362;58.948;2023-01-26T02:54:43;97463.09;;;-11.95;60.38
49943;BME280;36011;53.362;58.948;2023-01-26T02:58:04;97467.69;;;-12.10;60.18
49943;BME280;36011;53.362;58.948;2023-01-26T03:01:07;97465.06;;;-12.12;60.53
49943;BME280;36011;53.362;58.948;2023-01-26T03:04:11;97463.31;;;-12.14;60.73
49943;BME280;36011;53.362;58.948;2023-01-26T03:07:17;97467.78;;;-12.07;61.15
49943;BME280;36011;53.362;58.948;2023-01-26T03:10:21;97467.88;;;-12.04;60.90
49943;BME280;36011;53.362;58.948;2023-01-26T03:13:24;97462.50;;;-12.13;61.47
49943;BME280;36011;53.362;58.948;2023-01-26T03:16:25;97463.94;;;-11.94;61.68
49943;BME280;36011;53.362;58.948;2023-01-26T03:19:26;97471.22;;;-12.05;61.01
49943;BME280;36011;53.362;58.948;2023-01-26T03:22:48;97469.41;;;-11.82;62.31
49943;BME280;36011;53.362;58.948;2023-01-26T03:26:09;97482.22;;;-11.78;62.05
49943;BME280;36011;53.362;58.948;2023-01-26T03:29:29;97482.53;;;-11.68;62.22
49943;BME280;36011;53.362;58.948;2023-01-26T03:32:35;97480.50;;;-11.79;62.01
49943;BME280;36011;53.362;58.948;2023-01-26T03:35:38;97483.63;;;-11.60;62.10
49943;BME280;36011;53.362;58.948;2023-01-26T03:38:39;97471.81;;;-11.58;61.84
49943;BME280;36011;53.362;58.948;2023-01-26T03:41:45;97481.78;;;-11.66;61.72
49943;BME280;36011;53.362;58.948;2023-01-26T03:45:05;97484.25;;;-11.67;61.74
49943;BME280;36011;53.362;58.948;2023-01-26T03:48:29;97474.09;;;-11.94;61.41
49943;BME280;36011;53.362;58.948;2023-01-26T03:51:51;97474.25;;;-11.90;61.61
49943;BME280;36011;53.362;58.948;2023-01-26T03:55:10;97465.72;;;-11.92;61.53
49943;BME280;36011;53.362;58.948;2023-01-26T03:58:32;97463.09;;;-11.95;61.59
49943;BME280;36011;53.362;58.948;2023-01-26T04:01:34;97455.84;;;-11.83;61.59
49943;BME280;36011;53.362;58.948;2023-01-26T04:04:36;97467.00;;;-11.78;61.28
49943;BME280;36011;53.362;58.948;2023-01-26T04:08:00;97461.91;;;-11.78;61.17
49943;BME280;36011;53.362;58.948;2023-01-26T04:11:25;97457.06;;;-11.71;61.48
49943;BME280;36011;53.362;58.948;2023-01-26T04:14:26;97458.41;;;-11.83;61.12
49943;BME280;36011;53.362;58.948;2023-01-26T04:17:45;97465.88;;;-11.60;60.42
49943;BME280;36011;53.362;58.948;2023-01-26T04:21:09;97460.78;;;-11.60;60.24
49943;BME280;36011;53.362;58.948;2023-01-26T04:24:31;97463.59;;;-11.51;59.53
49943;BME280;36011;53.362;58.948;2023-01-26T04:27:35;97464.50;;;-11.76;60.44
49943;BME280;36011;53.362;58.948;2023-01-26T04:30:38;97459.59;;;-11.71;60.86
49943;BME280;36011;53.362;58.948;2023-01-26T04:33:39;97464.41;;;-11.52;60.05
49943;BME280;36011;53.362;58.948;2023-01-26T04:36:43;97470.47;;;-11.47;59.89
49943;BME280;36011;53.362;58.948;2023-01-26T04:39:46;97477.41;;;-11.41;59.61
49943;BME280;36011;53.362;58.948;2023-01-26T04:42:53;97478.59;;;-11.32;59.68
49943;BME280;36011;53.362;58.948;2023-01-26T04:46:01;97480.53;;;-11.51;59.53
49943;BME280;36011;53.362;58.948;2023-01-26T04:49:03;97475.22;;;-11.31;58.98
49943;BME280;36011;53.362;58.948;2023-01-26T04:52:06;97477.41;;;-11.14;58.77
49943;BME280;36011;53.362;58.948;2023-01-26T04:55:10;97473.84;;;-11.19;58.06
49943;BME280;36011;53.362;58.948;2023-01-26T04:58:11;97464.97;;;-11.34;58.12
49943;BME280;36011;53.362;58.948;2023-01-26T05:01:16;97477.00;;;-11.26;57.66
49943;BME280;36011;53.362;58.948;2023-01-26T05:04:20;97471.63;;;-11.37;56.62
49943;BME280;36011;53.362;58.948;2023-01-26T05:07:23;97467.66;;;-11.56;57.01
49943;BME280;36011;53.362;58.948;2023-01-26T05:10:26;97469.59;;;-11.20;56.88
49943;BME280;36011;53.362;58.948;2023-01-26T05:13:33;97470.00;;;-11.06;56.25
49943;BME280;36011;53.362;58.948;2023-01-26T05:16:40;97466.09;;;-11.24;55.94
49943;BME280;36011;53.362;58.948;2023-01-26T05:19:41;97473.84;;;-11.19;55.80
49943;BME280;36011;53.362;58.948;2023-01-26T05:22:42;97459.72;;;-11.10;56.02
49943;BME280;36011;53.362;58.948;2023-01-26T05:25:43;97457.94;;;-11.14;55.44
49943;BME280;36011;53.362;58.948;2023-01-26T05:28:44;97458.94;;;-11.07;55.30
49943;BME280;36011;53.362;58.948;2023-01-26T05:31:45;97473.25;;;-11.11;54.99
49943;BME280;36011;53.362;58.948;2023-01-26T05:34:46;97469.66;;;-10.89;54.86
49943;BME280;36011;53.362;58.948;2023-01-26T05:37:47;97459.31;;;-10.95;54.30
49943;BME280;36011;53.362;58.948;2023-01-26T05:40:50;97475.28;;;-10.99;54.53
49943;BME280;36011;53.362;58.948;2023-01-26T05:43:53;97477.56;;;-11.08;55.00
49943;BME280;36011;53.362;58.948;2023-01-26T05:46:58;97475.34;;;-10.97;55.48
49943;BME280;36011;53.362;58.948;2023-01-26T05:49:59;97465.53;;;-10.85;54.90
49943;BME280;36011;53.362;58.948;2023-01-26T05:53:01;97461.56;;;-10.75;54.75
49943;BME280;36011;53.362;58.948;2023-01-26T05:56:03;97476.91;;;-10.72;54.52
49943;BME280;36011;53.362;58.948;2023-01-26T05:59:06;97469.75;;;-10.55;54.55
49943;BME280;36011;53.362;58.948;2023-01-26T06:02:11;97480.69;;;-10.58;53.94
49943;BME280;36011;53.362;58.948;2023-01-26T06:05:12;97491.88;;;-10.51;53.73
49943;BME280;36011;53.362;58.948;2023-01-26T06:08:14;97483.00;;;-10.35;53.14
49943;BME280;36011;53.362;58.948;2023-01-26T06:11:18;97476.53;;;-10.21;52.80
49943;BME280;36011;53.362;58.948;2023-01-26T06:14:27;97457.25;;;-10.13;52.04
49943;BME280;36011;53.362;58.948;2023-01-26T06:17:32;97455.22;;;-10.25;52.96
49943;BME280;36011;53.362;58.948;2023-01-26T06:20:36;97456.78;;;-9.97;52.61
49943;BME280;36011;53.362;58.948;2023-01-26T06:23:41;97444.53;;;-10.13;52.59
49943;BME280;36011;53.362;58.948;2023-01-26T06:26:43;97449.97;;;-9.98;52.35
49943;BME280;36011;53.362;58.948;2023-01-26T06:29:46;97451.66;;;-9.98;52.47
49943;BME280;36011;53.362;58.948;2023-01-26T06:32:51;97455.13;;;-9.95;52.51
49943;BME280;36011;53.362;58.948;2023-01-26T06:35:53;97458.53;;;-9.96;52.53
49943;BME280;36011;53.362;58.948;2023-01-26T06:38:57;97458.75;;;-9.86;52.54
49943;BME280;36011;53.362;58.948;2023-01-26T06:42:01;97452.97;;;-9.79;52.25
49943;BME280;36011;53.362;58.948;2023-01-26T06:45:05;97450.38;;;-9.44;51.92
49943;BME280;36011;53.362;58.948;2023-01-26T06:48:08;97459.47;;;-9.56;51.72
49943;BME280;36011;53.362;58.948;2023-01-26T06:54:16;97457.09;;;-9.09;50.88
49943;BME280;36011;53.362;58.948;2023-01-26T06:57:17;97455.63;;;-6.25;48.12
49943;BME280;36011;53.362;58.948;2023-01-26T07:00:21;97461.88;;;-1.11;39.75
49943;BME280;36011;53.362;58.948;2023-01-26T07:03:24;97450.91;;;1.67;32.41
49943;BME280;36011;53.362;58.948;2023-01-26T07:06:30;97436.78;;;4.45;30.67
49943;BME280;36011;53.362;58.948;2023-01-26T07:09:33;97422.59;;;6.50;28.26
49943;BME280;36011;53.362;58.948;2023-01-26T07:12:38;97439.69;;;8.02;26.50
49943;BME280;36011;53.362;58.948;2023-01-26T07:15:40;97429.94;;;8.97;23.11
49943;BME280;36011;53.362;58.948;2023-01-26T07:18:41;97452.91;;;9.46;22.98
49943;BME280;36011;53.362;58.948;2023-01-26T07:21:48;97428.81;;;9.37;21.40
49943;BME280;36011;53.362;58.948;2023-01-26T07:24:51;97430.47;;;9.56;21.39
49943;BME280;36011;53.362;58.948;2023-01-26T07:27:56;97434.66;;;9.60;20.76
49943;BME280;36011;53.362;58.948;2023-01-26T07:30:58;97423.84;;;9.82;21.08
49943;BME280;36011;53.362;58.948;2023-01-26T07:33:59;97411.19;;;10.69;19.89
49943;BME280;36011;53.362;58.948;2023-01-26T07:37:05;97402.94;;;11.21;19.43
49943;BME280;36011;53.362;58.948;2023-01-26T07:40:07;97400.75;;;12.16;19.08
49943;BME280;36011;53.362;58.948;2023-01-26T07:43:10;97400.63;;;13.13;18.21
49943;BME280;36011;53.362;58.948;2023-01-26T07:46:18;97389.63;;;13.19;17.58
49943;BME280;36011;53.362;58.948;2023-01-26T07:49:21;97377.94;;;13.87;17.87
49943;BME280;36011;53.362;58.948;2023-01-26T07:52:25;97380.53;;;14.25;17.28
49943;BME280;36011;53.362;58.948;2023-01-26T07:55:27;97385.69;;;15.00;16.57
49943;BME280;36011;53.362;58.948;2023-01-26T07:58:30;97369.22;;;14.84;16.32
49943;BME280;36011;53.362;58.948;2023-01-26T08:01:41;97381.34;;;14.75;17.71
49943;BME280;36011;53.362;58.948;2023-01-26T08:04:47;97378.78;;;15.80;16.48
49943;BME280;36011;53.362;58.948;2023-01-26T08:07:51;97379.00;;;15.99;15.87
49943;BME280;36011;53.362;58.948;2023-01-26T08:10:59;97375.44;;;15.42;15.76
49943;BME280;36011;53.362;58.948;2023-01-26T08:14:01;97380.13;;;15.39;15.59
49943;BME280;36011;53.362;58.948;2023-01-26T08:17:05;97372.94;;;14.81;15.70
49943;BME280;36011;53.362;58.948;2023-01-26T08:20:06;97374.13;;;14.04;16.42
49943;BME280;36011;53.362;58.948;2023-01-26T08:23:13;97364.97;;;15.05;16.27
49943;BME280;36011;53.362;58.948;2023-01-26T08:26:17;97371.44;;;15.37;15.03
49943;BME280;36011;53.362;58.948;2023-01-26T08:29:21;97364.06;;;14.94;15.90
49943;BME280;36011;53.362;58.948;2023-01-26T08:32:27;97368.00;;;15.12;15.51
49943;BME280;36011;53.362;58.948;2023-01-26T08:35:30;97349.50;;;14.27;15.86
49943;BME280;36011;53.362;58.948;2023-01-26T08:38:33;97358.28;;;13.78;16.34
49943;BME280;36011;53.362;58.948;2023-01-26T08:41:37;97360.31;;;12.96;16.86
49943;BME280;36011;53.362;58.948;2023-01-26T08:44:39;97358.06;;;12.50;17.17
49943;BME280;36011;53.362;58.948;2023-01-26T08:47:47;97366.69;;;12.67;17.14
49943;BME280;36011;53.362;58.948;2023-01-26T08:50:54;97353.19;;;11.74;17.84
49943;BME280;36011;53.362;58.948;2023-01-26T08:53:58;97352.09;;;10.45;19.24
49943;BME280;36011;53.362;58.948;2023-01-26T08:57:02;97337.72;;;10.50;19.24
49943;BME280;36011;53.362;58.948;2023-01-26T09:00:07;97324.00;;;10.29;19.59
49943;BME280;36011;53.362;58.948;2023-01-26T09:03:11;97327.78;;;10.24;19.58
49943;BME280;36011;53.362;58.948;2023-01-26T09:06:15;97318.75;;;10.90;19.34
49943;BME280;36011;53.362;58.948;2023-01-26T09:09:18;97326.03;;;11.15;18.84
49943;BME280;36011;53.362;58.948;2023-01-26T09:12:27;97325.72;;;10.91;19.24
49943;BME280;36011;53.362;58.948;2023-01-26T09:15:32;97313.72;;;10.41;19.60
49943;BME280;36011;53.362;58.948;2023-01-26T09:18:35;97303.63;;;10.17;19.98
49943;BME280;36011;53.362;58.948;2023-01-26T09:21:38;97306.19;;;10.03;20.33
49943;BME280;36011;53.362;58.948;2023-01-26T09:24:40;97282.44;;;9.73;20.63
49943;BME280;36011;53.362;58.948;2023-01-26T09:27:41;97286.84;;;9.72;20.45
49943;BME280;36011;53.362;58.948;2023-01-26T09:30:43;97292.00;;;9.58;20.75
49943;BME280;36011;53.362;58.948;2023-01-26T09:33:44;97287.84;;;8.70;21.52
49943;BME280;36011;53.362;58.948;2023-01-26T09:36:48;97283.25;;;8.21;22.27
49943;BME280;36011;53.362;58.948;2023-01-26T09:39:55;97298.41;;;8.15;22.42
49943;BME280;36011;53.362;58.948;2023-01-26T09:46:27;97282.22;;;8.77;21.96
49943;BME280;36011;53.362;58.948;2023-01-26T09:52:48;97282.06;;;10.10;20.86
49943;BME280;36011;53.362;58.948;2023-01-26T09:55:54;97268.91;;;10.26;20.59
49943;BME280;36011;53.362;58.948;2023-01-26T09:59:06;97259.84;;;10.16;20.66
49943;BME280;36011;53.362;58.948;2023-01-26T10:08:40;97247.06;;;9.78;20.80
49943;BME280;36011;53.362;58.948;2023-01-26T10:11:47;97245.59;;;9.25;21.34
49943;BME280;36011;53.362;58.948;2023-01-26T10:15:03;97253.69;;;9.05;21.75
49943;BME280;36011;53.362;58.948;2023-01-26T10:18:17;97239.09;;;8.66;22.04
49943;BME280;36011;53.362;58.948;2023-01-26T10:21:21;97260.41;;;8.23;22.43
49943;BME280;36011;53.362;58.948;2023-01-26T10:28:12;97245.25;;;7.38;23.37
49943;BME280;36011;53.362;58.948;2023-01-26T10:31:21;97248.69;;;7.01;23.74
49943;BME280;36011;53.362;58.948;2023-01-26T10:34:25;97268.66;;;6.83;24.21
49943;BME280;36011;53.362;58.948;2023-01-26T10:37:32;97259.19;;;6.81;24.03
49943;BME280;36011;53.362;58.948;2023-01-26T10:40:42;97258.19;;;6.22;25.02
49943;BME280;36011;53.362;58.948;2023-01-26T10:43:57;97256.06;;;5.20;26.21
49943;BME280;36011;53.362;58.948;2023-01-26T10:47:22;97259.34;;;3.45;28.31
49943;BME280;36011;53.362;58.948;2023-01-26T10:50:25;97260.16;;;1.88;31.31
49943;BME280;36011;53.362;58.948;2023-01-26T10:53:37;97270.75;;;0.58;33.32
49943;BME280;36011;53.362;58.948;2023-01-26T10:56:43;97264.13;;;-0.07;34.71
49943;BME280;36011;53.362;58.948;2023-01-26T10:59:50;97271.63;;;-0.46;35.45
49943;BME280;36011;53.362;58.948;2023-01-26T11:14:24;97262.59;;;-1.44;37.63
49943;BME280;36011;53.362;58.948;2023-01-26T11:17:41;97248.81;;;-1.44;37.91
49943;BME280;36011;53.362;58.948;2023-01-26T11:30:40;97264.13;;;-2.15;39.13
49943;BME280;36011;53.362;58.948;2023-01-26T11:37:29;97288.38;;;-2.41;39.60
49943;BME280;36011;53.362;58.948;2023-01-26T11:40:40;97270.38;;;-2.47;39.73
49943;BME280;36011;53.362;58.948;2023-01-26T11:57:03;97291.34;;;-3.11;40.14
49943;BME280;36011;53.362;58.948;2023-01-26T12:00:15;97276.00;;;-3.30;40.87
49943;BME280;36011;53.362;58.948;2023-01-26T12:03:29;97270.00;;;-3.35;41.02
49943;BME280;36011;53.362;58.948;2023-01-26T12:06:36;97267.47;;;-3.44;40.93
49943;BME280;36011;53.362;58.948;2023-01-26T12:09:47;97261.47;;;-3.45;40.97
49943;BME280;36011;53.362;58.948;2023-01-26T12:12:53;97258.91;;;-3.54;41.13
49943;BME280;36011;53.362;58.948;2023-01-26T12:15:58;97262.41;;;-3.75;41.75
49943;BME280;36011;53.362;58.948;2023-01-26T12:22:17;97289.88;;;-3.95;41.69
49943;BME280;36011;53.362;58.948;2023-01-26T12:25:26;97290.75;;;-4.07;42.15
49943;BME280;36011;53.362;58.948;2023-01-26T12:31:34;97277.88;;;-4.39;42.85
49943;BME280;36011;53.362;58.948;2023-01-26T12:34:38;97283.00;;;-4.36;43.50
49943;BME280;36011;53.362;58.948;2023-01-26T12:37:56;97268.47;;;-4.30;43.24
49943;BME280;36011;53.362;58.948;2023-01-26T12:53:56;97269.31;;;-4.26;43.45
49943;BME280;36011;53.362;58.948;2023-01-26T12:57:01;97253.91;;;-4.20;43.50
49943;BME280;36011;53.362;58.948;2023-01-26T13:00:19;97263.31;;;-4.25;43.64
49943;BME280;36011;53.362;58.948;2023-01-26T13:03:28;97244.50;;;-4.24;43.77
49943;BME280;36011;53.362;58.948;2023-01-26T13:06:36;97232.50;;;-4.30;44.47
49943;BME280;36011;53.362;58.948;2023-01-26T13:09:39;97241.91;;;-4.48;44.38
49943;BME280;36011;53.362;58.948;2023-01-26T13:22:39;97258.16;;;-4.80;45.23
49943;BME280;36011;53.362;58.948;2023-01-26T13:25:43;97263.28;;;-4.80;45.38
49943;BME280;36011;53.362;58.948;2023-01-26T13:28:50;97269.28;;;-4.78;45.88
49943;BME280;36011;53.362;58.948;2023-01-26T13:31:54;97269.25;;;-4.87;45.99
49943;BME280;36011;53.362;58.948;2023-01-26T13:34:57;97272.69;;;-4.91;46.14
49943;BME280;36011;53.362;58.948;2023-01-26T13:41:18;97276.06;;;-5.08;46.27
49943;BME280;36011;53.362;58.948;2023-01-26T13:44:39;97283.81;;;-4.92;46.41
49943;BME280;36011;53.362;58.948;2023-01-26T13:47:46;97267.50;;;-5.10;47.14
49943;BME280;36011;53.362;58.948;2023-01-26T13:50:52;97273.50;;;-5.05;47.06
49943;BME280;36011;53.362;58.948;2023-01-26T13:54:06;97265.75;;;-5.20;47.50
49943;BME280;36011;53.362;58.948;2023-01-26T13:57:18;97253.84;;;-5.03;46.81
49943;BME280;36011;53.362;58.948;2023-01-26T14:00:22;97264.09;;;-5.04;46.78
49943;BME280;36011;53.362;58.948;2023-01-26T14:03:25;97262.41;;;-4.98;47.68
49943;BME280;36011;53.362;58.948;2023-01-26T14:06:28;97251.19;;;-5.24;47.18
49943;BME280;36011;53.362;58.948;2023-01-26T14:09:31;97248.69;;;-5.09;47.20
49943;BME280;36011;53.362;58.948;2023-01-26T14:12:40;97248.69;;;-5.12;47.80
49943;BME280;36011;53.362;58.948;2023-01-26T14:15:43;97243.56;;;-5.09;47.29
49943;BME280;36011;53.362;58.948;2023-01-26T14:18:47;97248.69;;;-5.15;47.55
49943;BME280;36011;53.362;58.948;2023-01-26T14:21:54;97251.16;;;-5.39;47.96
49943;BME280;36011;53.362;58.948;2023-01-26T14:24:57;97260.63;;;-5.20;48.40
49943;BME280;36011;53.362;58.948;2023-01-26T14:28:00;97259.75;;;-5.31;48.54
49943;BME280;36011;53.362;58.948;2023-01-26T14:31:19;97257.19;;;-5.25;48.09
49943;BME280;36011;53.362;58.948;2023-01-26T14:34:24;97257.09;;;-5.48;48.59
49943;BME280;36011;53.362;58.948;2023-01-26T14:37:28;97251.97;;;-5.44;48.33
49943;BME280;36011;53.362;58.948;2023-01-26T14:40:32;97257.94;;;-5.51;48.82
49943;BME280;36011;53.362;58.948;2023-01-26T14:43:44;97259.66;;;-5.48;48.28
49943;BME280;36011;53.362;58.948;2023-01-26T14:46:52;97257.06;;;-5.59;48.53
49943;BME280;36011;53.362;58.948;2023-01-26T14:50:09;97248.50;;;-5.61;48.94
49943;BME280;36011;53.362;58.948;2023-01-26T14:56:45;97253.53;;;-5.82;48.95
49943;BME280;36011;53.362;58.948;2023-01-26T14:59:49;97256.94;;;-5.80;49.20
49943;BME280;36011;53.362;58.948;2023-01-26T15:02:53;97243.31;;;-5.73;48.97
49943;BME280;36011;53.362;58.948;2023-01-26T15:06:15;97250.06;;;-5.91;49.75
49943;BME280;36011;53.362;58.948;2023-01-26T15:09:21;97256.06;;;-5.93;49.48
49943;BME280;36011;53.362;58.948;2023-01-26T15:12:31;97248.25;;;-6.10;49.89
49943;BME280;36011;53.362;58.948;2023-01-26T15:15:45;97253.44;;;-6.01;50.02
49943;BME280;36011;53.362;58.948;2023-01-26T15:19:03;97253.41;;;-6.07;50.12
49943;BME280;36011;53.362;58.948;2023-01-26T15:22:20;97246.56;;;-6.03;49.46
49943;BME280;36011;53.362;58.948;2023-01-26T15:25:27;97230.38;;;-6.01;50.02
49943;BME280;36011;53.362;58.948;2023-01-26T15:28:31;97229.47;;;-6.06;50.08
49943;BME280;36011;53.362;58.948;2023-01-26T15:31:34;97213.28;;;-6.08;50.24
49943;BME280;36011;53.362;58.948;2023-01-26T15:34:38;97208.19;;;-5.93;49.47
49943;BME280;36011;53.362;58.948;2023-01-26T15:37:43;97210.72;;;-6.00;49.88
49943;BME280;36011;53.362;58.948;2023-01-26T15:40:46;97226.06;;;-6.11;50.03
49943;BME280;36011;53.362;58.948;2023-01-26T15:43:49;97220.84;;;-6.20;50.08
49943;BME280;36011;53.362;58.948;2023-01-26T15:46:52;97199.53;;;-6.18;50.10
49943;BME280;36011;53.362;58.948;2023-01-26T15:49:57;97192.78;;;-6.08;50.24
49943;BME280;36011;53.362;58.948;2023-01-26T15:52:59;97188.47;;;-6.09;49.84
49943;BME280;36011;53.362;58.948;2023-01-26T15:56:04;97193.59;;;-6.17;50.30
49943;BME280;36011;53.362;58.948;2023-01-26T15:59:06;97192.78;;;-6.08;49.84
49943;BME280;36011;53.362;58.948;2023-01-26T16:02:18;97189.34;;;-6.10;50.33
49943;BME280;36011;53.362;58.948;2023-01-26T16:05:22;97190.19;;;-6.11;50.32
49943;BME280;36011;53.362;58.948;2023-01-26T16:08:25;97200.34;;;-6.23;50.42
49943;BME280;36011;53.362;58.948;2023-01-26T16:11:29;97186.72;;;-6.19;50.61
49943;BME280;36011;53.362;58.948;2023-01-26T16:14:32;97202.94;;;-6.20;50.56
49943;BME280;36011;53.362;58.948;2023-01-26T16:17:36;97198.69;;;-6.18;49.84
49943;BME280;36011;53.362;58.948;2023-01-26T16:20:40;97192.78;;;-6.05;49.90
49943;BME280;36011;53.362;58.948;2023-01-26T16:23:44;97198.69;;;-6.15;50.19
49943;BME280;36011;53.362;58.948;2023-01-26T16:26:47;97195.28;;;-6.16;50.02
49943;BME280;36011;53.362;58.948;2023-01-26T16:29:49;97203.84;;;-6.14;49.67
49943;BME280;36011;53.362;58.948;2023-01-26T16:32:52;97195.25;;;-6.17;49.67
49943;BME280;36011;53.362;58.948;2023-01-26T16:35:54;97186.66;;;-6.28;49.66
49943;BME280;36011;53.362;58.948;2023-01-26T16:38:57;97179.81;;;-6.33;50.05
49943;BME280;36011;53.362;58.948;2023-01-26T16:42:00;97179.84;;;-6.26;50.40
49943;BME280;36011;53.362;58.948;2023-01-26T16:45:04;97184.88;;;-6.45;50.80
49943;BME280;36011;53.362;58.948;2023-01-26T16:48:09;97189.13;;;-6.47;50.84
49943;BME280;36011;53.362;58.948;2023-01-26T16:54:20;97166.03;;;-6.56;50.63
49943;BME280;36011;53.362;58.948;2023-01-26T16:57:26;97172.81;;;-6.61;50.66
49943;BME280;36011;53.362;58.948;2023-01-26T17:00:33;97185.69;;;-6.46;50.40
49943;BME280;36011;53.362;58.948;2023-01-26T17:03:36;97193.38;;;-6.43;50.32
49943;BME280;36011;53.362;58.948;2023-01-26T17:06:41;97181.63;;;-6.13;49.60
49943;BME280;36011;53.362;58.948;2023-01-26T17:09:43;97186.84;;;-5.98;48.80
49943;BME280;36011;53.362;58.948;2023-01-26T17:12:46;97188.50;;;-6.03;48.74
49943;BME280;36011;53.362;58.948;2023-01-26T17:15:54;97190.25;;;-5.99;48.09
49943;BME280;36011;53.362;58.948;2023-01-26T17:18:57;97184.28;;;-5.95;48.49
49943;BME280;36011;53.362;58.948;2023-01-26T17:22:01;97186.81;;;-5.92;48.29
49943;BME280;36011;53.362;58.948;2023-01-26T17:25:06;97202.19;;;-6.04;48.99
49943;BME280;36011;53.362;58.948;2023-01-26T17:28:10;97187.69;;;-5.93;47.94
49943;BME280;36011;53.362;58.948;2023-01-26T17:31:17;97207.34;;;-5.95;48.70
49943;BME280;36011;53.362;58.948;2023-01-26T17:34:20;97190.22;;;-6.03;48.61
49943;BME280;36011;53.362;58.948;2023-01-26T17:37:29;97197.81;;;-6.17;48.88
49943;BME280;36011;53.362;58.948;2023-01-26T17:40:33;97200.38;;;-6.20;48.88
49943;BME280;36011;53.362;58.948;2023-01-26T17:43:38;97197.00;;;-6.13;48.68
49943;BME280;36011;53.362;58.948;2023-01-26T17:46:43;97194.50;;;-6.05;47.80
49943;BME280;36011;53.362;58.948;2023-01-26T17:49:46;97185.06;;;-6.11;48.15